createdAt,value
2022-12-20T00:01:33.901Z,7.25
2022-12-20T00:04:03.883Z,7.27
2022-12-20T00:06:33.423Z,7.27
2022-12-20T00:09:03.888Z,7.28
2022-12-20T00:11:32.348Z,7.27
2022-12-20T00:13:59.854Z,7.28
2022-12-20T00:16:28.887Z,7.28
2022-12-20T00:19:02.523Z,7.29
2022-12-20T00:21:31.566Z,7.29
2022-12-20T00:23:59.512Z,7.28
2022-12-20T00:26:29.985Z,7.28
2022-12-20T00:28:57.911Z,7.28
2022-12-20T00:31:26.581Z,7.29
2022-12-20T00:33:56.036Z,7.27
2022-12-20T00:36:25.954Z,7.27
2022-12-20T00:38:55.808Z,7.27
2022-12-20T00:41:29.031Z,7.23
2022-12-20T00:43:56.469Z,7.24
2022-12-20T00:46:27.521Z,7.22
2022-12-20T00:48:55.727Z,7.19
2022-12-20T00:51:29.010Z,7.18
2022-12-20T00:53:56.803Z,7.19
2022-12-20T00:56:26.044Z,7.22
2022-12-20T00:58:59.074Z,7.24
2022-12-20T01:01:32.499Z,7.25
2022-12-20T01:04:01.262Z,7.24
2022-12-20T01:06:30.257Z,7.23
2022-12-20T01:08:58.353Z,7.28
2022-12-20T01:11:29.262Z,7.30
2022-12-20T01:13:59.998Z,7.31
2022-12-20T01:16:34.772Z,7.32
2022-12-20T01:19:05.930Z,7.32
2022-12-20T01:21:36.477Z,7.33
2022-12-20T01:24:04.693Z,7.33
2022-12-20T01:26:31.976Z,7.33
2022-12-20T01:29:00.710Z,7.36
2022-12-20T01:31:30.322Z,7.38
2022-12-20T01:33:58.590Z,7.41
2022-12-20T01:36:29.648Z,7.46
2022-12-20T01:38:59.345Z,7.48
2022-12-20T01:41:28.191Z,7.53
2022-12-20T01:43:58.579Z,7.56
2022-12-20T01:46:28.648Z,7.58
2022-12-20T01:48:59.370Z,7.60
2022-12-20T01:51:29.928Z,7.59
2022-12-20T01:54:06.303Z,7.62
2022-12-20T01:56:34.572Z,7.62
2022-12-20T01:59:02.439Z,7.63
2022-12-20T02:01:29.797Z,7.65
2022-12-20T02:03:57.878Z,7.66
2022-12-20T02:06:26.762Z,7.64
2022-12-20T02:08:58.741Z,7.65
2022-12-20T02:11:44.729Z,7.65
2022-12-20T02:14:32.534Z,7.62
2022-12-20T02:17:14.688Z,7.61
2022-12-20T02:20:00.074Z,7.61
2022-12-20T02:22:42.650Z,7.63
2022-12-20T02:25:20.525Z,7.65
2022-12-20T02:27:54.241Z,7.69
2022-12-20T02:30:26.928Z,7.70
2022-12-20T02:33:00.324Z,7.72
2022-12-20T02:35:35.424Z,7.72
2022-12-20T02:38:25.193Z,7.71
2022-12-20T02:40:58.350Z,7.72
2022-12-20T02:43:49.066Z,7.71
2022-12-20T02:46:19.727Z,7.73
2022-12-20T02:48:48.711Z,7.71
2022-12-20T02:51:20.478Z,7.72
2022-12-20T02:53:47.981Z,7.72
2022-12-20T02:56:47.408Z,7.74
2022-12-20T02:59:21.428Z,7.75
2022-12-20T03:01:52.364Z,7.73
2022-12-20T03:04:23.688Z,7.75
2022-12-20T03:06:58.015Z,7.75
2022-12-20T03:09:25.368Z,7.78
2022-12-20T03:11:53.905Z,7.78
2022-12-20T03:14:21.524Z,7.79
2022-12-20T03:16:50.695Z,7.80
2022-12-20T03:19:18.456Z,7.83
2022-12-20T03:21:46.697Z,7.83
2022-12-20T03:24:14.838Z,7.80
2022-12-20T03:26:42.289Z,7.79
2022-12-20T03:29:10.371Z,7.80
2022-12-20T03:31:39.020Z,7.78
2022-12-20T03:34:06.582Z,7.75
2022-12-20T03:36:35.640Z,7.72
2022-12-20T03:39:06.317Z,7.71
2022-12-20T03:41:37.783Z,7.70
2022-12-20T03:44:06.315Z,7.66
2022-12-20T03:46:33.847Z,7.64
2022-12-20T03:49:01.263Z,7.62
2022-12-20T03:51:29.819Z,7.61
2022-12-20T03:53:57.609Z,7.59
2022-12-20T03:56:36.559Z,7.57
2022-12-20T03:59:04.895Z,7.57
2022-12-20T04:01:36.618Z,7.59
2022-12-20T04:04:05.482Z,7.58
2022-12-20T04:06:32.888Z,7.58
2022-12-20T04:09:00.716Z,7.56
2022-12-20T04:11:33.605Z,7.57
2022-12-20T04:14:06.910Z,7.55
2022-12-20T04:16:35.399Z,7.55
2022-12-20T04:19:03.056Z,7.54
2022-12-20T04:21:36.271Z,7.54
2022-12-20T04:24:05.773Z,7.53
2022-12-20T04:26:46.478Z,7.54
2022-12-20T04:29:15.850Z,7.54
2022-12-20T04:31:44.347Z,7.56
2022-12-20T04:34:14.484Z,7.56
2022-12-20T04:36:42.110Z,7.57
2022-12-20T04:39:15.665Z,7.58
2022-12-20T04:42:08.875Z,7.57
2022-12-20T04:44:36.294Z,7.59
2022-12-20T04:47:05.936Z,7.61
2022-12-20T04:49:33.243Z,7.60
2022-12-20T04:52:20.474Z,7.61
2022-12-20T04:54:48.658Z,7.61
2022-12-20T04:57:25.091Z,7.59
2022-12-20T04:59:53.054Z,7.59
2022-12-20T05:02:20.552Z,7.58
2022-12-20T05:04:51.986Z,7.61
2022-12-20T05:07:19.297Z,7.63
2022-12-20T05:09:51.868Z,7.67
2022-12-20T05:12:19.298Z,7.70
2022-12-20T05:14:46.675Z,7.71
2022-12-20T05:17:16.943Z,7.75
2022-12-20T05:19:45.078Z,7.76
2022-12-20T05:22:36.355Z,7.78
2022-12-20T05:25:29.568Z,7.83
2022-12-20T05:28:00.122Z,7.85
2022-12-20T05:30:30.740Z,7.89
2022-12-20T05:32:58.375Z,7.89
2022-12-20T05:35:26.280Z,7.89
2022-12-20T05:38:02.536Z,7.91
2022-12-20T05:40:29.945Z,7.94
2022-12-20T05:42:57.421Z,7.97
2022-12-20T05:45:33.785Z,7.99
2022-12-20T05:48:05.940Z,8.01
2022-12-20T05:50:37.680Z,8.03
2022-12-20T05:53:28.852Z,8.06
2022-12-20T05:55:59.739Z,8.07
2022-12-20T05:58:31.409Z,8.07
2022-12-20T06:01:07.397Z,8.10
2022-12-20T06:03:40.691Z,8.10
2022-12-20T06:06:15.085Z,8.12
2022-12-20T06:08:45.573Z,8.12
2022-12-20T06:11:21.987Z,8.15
2022-12-20T06:13:59.528Z,8.17
2022-12-20T06:16:27.479Z,8.19
2022-12-20T06:18:57.204Z,8.20
2022-12-20T06:21:24.521Z,8.19
2022-12-20T06:23:54.260Z,8.18
2022-12-20T06:26:23.511Z,8.20
2022-12-20T06:28:52.671Z,8.19
2022-12-20T06:31:26.868Z,8.21
2022-12-20T06:33:55.375Z,8.23
2022-12-20T06:36:26.786Z,8.24
2022-12-20T06:38:56.084Z,8.24
2022-12-20T06:41:23.380Z,8.25
2022-12-20T06:43:52.208Z,8.27
2022-12-20T06:46:20.282Z,8.27
2022-12-20T06:48:48.352Z,8.27
2022-12-20T06:51:17.491Z,8.28
2022-12-20T06:53:44.972Z,8.27
2022-12-20T06:56:14.383Z,8.27
2022-12-20T06:58:41.744Z,8.28
2022-12-20T07:01:09.291Z,8.29
2022-12-20T07:03:36.823Z,8.33
2022-12-20T07:06:05.621Z,8.35
2022-12-20T07:08:33.034Z,8.37
2022-12-20T07:11:06.654Z,8.39
2022-12-20T07:13:34.879Z,8.40
2022-12-20T07:16:04.040Z,8.42
2022-12-20T07:18:31.682Z,8.44
2022-12-20T07:21:01.348Z,8.45
2022-12-20T07:23:29.372Z,8.47
2022-12-20T07:25:58.936Z,8.50
2022-12-20T07:28:27.376Z,8.52
2022-12-20T07:30:55.253Z,8.52
2022-12-20T07:33:22.626Z,8.49
2022-12-20T07:35:54.461Z,8.49
2022-12-20T07:38:22.634Z,8.47
2022-12-20T07:40:49.898Z,8.45
2022-12-20T07:43:17.259Z,8.44
2022-12-20T07:45:44.505Z,8.41
2022-12-20T07:48:16.306Z,8.40
2022-12-20T07:50:47.500Z,8.38
2022-12-20T07:53:17.862Z,8.38
2022-12-20T07:55:45.100Z,8.38
2022-12-20T07:58:13.798Z,8.37
2022-12-20T08:00:41.340Z,8.35
2022-12-20T08:03:24.365Z,8.35
2022-12-20T08:05:56.438Z,8.35
2022-12-20T08:08:27.149Z,8.34
2022-12-20T08:10:54.282Z,8.34
2022-12-20T08:13:23.240Z,8.34
2022-12-20T08:15:50.810Z,8.36
2022-12-20T08:18:18.103Z,8.40
2022-12-20T08:20:45.349Z,8.46
2022-12-20T08:23:12.658Z,8.48
2022-12-20T08:25:42.149Z,8.55
2022-12-20T08:28:09.544Z,8.58
2022-12-20T08:30:37.352Z,8.62
2022-12-20T08:33:07.087Z,8.61
2022-12-20T08:35:34.542Z,8.66
2022-12-20T08:38:01.804Z,8.67
2022-12-20T08:40:30.072Z,8.69
2022-12-20T08:42:58.836Z,8.71
2022-12-20T08:45:26.083Z,8.71
2022-12-20T08:47:53.906Z,8.72
2022-12-20T08:50:21.215Z,8.74
2022-12-20T08:52:48.606Z,8.71
2022-12-20T08:55:16.103Z,8.67
2022-12-20T08:57:43.468Z,8.67
2022-12-20T09:00:11.550Z,8.65
2022-12-20T09:02:41.037Z,8.65
2022-12-20T09:05:08.901Z,8.64
2022-12-20T09:07:36.290Z,8.61
2022-12-20T09:10:03.769Z,8.60
2022-12-20T09:12:31.106Z,8.59
2022-12-20T09:14:58.354Z,8.60
2022-12-20T09:17:25.684Z,8.62
2022-12-20T09:19:53.742Z,8.62
2022-12-20T09:22:21.431Z,8.60
2022-12-20T09:24:49.341Z,8.59
2022-12-20T09:27:16.659Z,8.58
2022-12-20T09:29:43.933Z,8.57
2022-12-20T09:32:11.183Z,8.58
2022-12-20T09:34:39.501Z,8.56
2022-12-20T09:37:06.916Z,8.56
2022-12-20T09:39:34.291Z,8.59
2022-12-20T09:42:09.301Z,8.59
2022-12-20T09:44:40.372Z,8.60
2022-12-20T09:47:21.363Z,8.63
2022-12-20T09:49:54.181Z,8.66
2022-12-20T09:52:49.709Z,8.69
2022-12-20T09:55:34.667Z,8.72
2022-12-20T09:58:25.343Z,8.76
2022-12-20T10:00:54.514Z,8.81
2022-12-20T10:03:26.638Z,8.86
2022-12-20T10:06:00.519Z,8.91
2022-12-20T10:08:56.592Z,8.97
2022-12-20T10:12:19.630Z,9.01
2022-12-20T10:15:02.097Z,9.04
2022-12-20T10:17:57.387Z,9.06
2022-12-20T10:20:37.254Z,9.08
2022-12-20T10:23:43.286Z,9.08
2022-12-20T10:26:12.688Z,9.12
2022-12-20T10:28:41.164Z,9.14
2022-12-20T10:31:14.549Z,9.16
2022-12-20T10:33:43.063Z,9.20
2022-12-20T10:36:20.261Z,9.23
2022-12-20T10:38:50.463Z,9.26
2022-12-20T10:41:22.973Z,9.27
2022-12-20T10:44:14.884Z,9.30
2022-12-20T10:46:48.333Z,9.31
2022-12-20T10:49:34.847Z,9.32
2022-12-20T10:52:08.740Z,9.33
2022-12-20T10:54:37.820Z,9.36
2022-12-20T10:57:24.947Z,9.38
2022-12-20T11:00:00.779Z,9.39
2022-12-20T11:02:40.717Z,9.39
2022-12-20T11:05:12.840Z,9.41
2022-12-20T11:11:23.086Z,9.44
2022-12-20T11:13:52.261Z,9.46
2022-12-20T11:16:24.406Z,9.48
2022-12-20T11:19:06.513Z,9.47
2022-12-20T11:21:58.315Z,9.47
2022-12-20T11:24:45.373Z,9.45
2022-12-20T11:27:31.283Z,9.43
2022-12-20T11:30:09.847Z,9.42
2022-12-20T11:32:59.133Z,9.40
2022-12-20T11:35:39.279Z,9.38
2022-12-20T11:38:18.226Z,9.38
2022-12-20T11:40:58.360Z,9.35
2022-12-20T11:43:48.085Z,9.35
2022-12-20T11:46:46.748Z,9.34
2022-12-20T11:49:33.851Z,9.34
2022-12-20T11:52:15.411Z,9.35
2022-12-20T11:54:47.750Z,9.35
2022-12-20T11:57:24.404Z,9.34
2022-12-20T11:59:57.879Z,9.35
2022-12-20T12:02:25.398Z,9.34
2022-12-20T12:05:04.146Z,9.35
2022-12-20T12:07:36.961Z,9.36
2022-12-20T12:10:22.542Z,9.34
2022-12-20T12:13:20.461Z,9.35
2022-12-20T12:15:59.833Z,9.33
2022-12-20T12:18:32.963Z,9.34
2022-12-20T12:21:26.543Z,9.33
2022-12-20T12:24:12.796Z,9.33
2022-12-20T12:26:41.166Z,9.33
2022-12-20T12:29:17.269Z,9.33
2022-12-20T12:31:49.909Z,9.34
2022-12-20T12:34:26.862Z,9.34
2022-12-20T12:37:32.500Z,9.34
2022-12-20T12:40:25.178Z,9.34
2022-12-20T12:43:13.926Z,9.34
2022-12-20T12:45:51.485Z,9.34
2022-12-20T12:48:24.573Z,9.32
2022-12-20T12:50:56.575Z,9.31
2022-12-20T12:53:36.841Z,9.30
2022-12-20T12:56:42.691Z,9.28
2022-12-20T12:59:20.942Z,9.26
2022-12-20T13:02:06.853Z,9.25
2022-12-20T13:04:58.863Z,9.24
2022-12-20T13:07:32.597Z,9.23
2022-12-20T13:10:29.512Z,9.22
2022-12-20T13:12:59.713Z,9.20
2022-12-20T13:15:27.493Z,9.20
2022-12-20T13:17:58.092Z,9.18
2022-12-20T13:20:33.407Z,9.18
2022-12-20T13:23:12.773Z,9.16
2022-12-20T13:25:54.522Z,9.16
2022-12-20T13:28:24.702Z,9.16
2022-12-20T13:31:01.340Z,9.15
2022-12-20T13:33:42.552Z,9.14
2022-12-20T13:36:09.817Z,9.13
2022-12-20T13:38:43.252Z,9.13
2022-12-20T13:41:34.508Z,9.13
2022-12-20T13:44:14.704Z,9.13
2022-12-20T13:46:58.552Z,9.12
2022-12-20T13:49:28.836Z,9.10
2022-12-20T13:52:19.930Z,9.11
2022-12-20T13:54:52.454Z,9.12
2022-12-20T13:57:31.432Z,9.11
2022-12-20T14:00:07.131Z,9.12
2022-12-20T14:02:41.976Z,9.13
2022-12-20T14:05:26.833Z,9.13
2022-12-20T14:08:02.661Z,9.14
2022-12-20T14:10:32.724Z,9.15
2022-12-20T14:13:00.571Z,9.15
2022-12-20T14:15:29.508Z,9.16
2022-12-20T14:17:57.443Z,9.16
2022-12-20T14:20:36.498Z,9.16
2022-12-20T14:23:16.165Z,9.16
2022-12-20T14:25:52.848Z,9.16
2022-12-20T14:28:27.396Z,9.16
2022-12-20T14:30:56.812Z,9.16
2022-12-20T14:33:44.901Z,9.16
2022-12-20T14:36:20.604Z,9.16
2022-12-20T14:38:50.086Z,9.16
2022-12-20T14:41:55.301Z,9.16
2022-12-20T14:44:24.448Z,9.16
2022-12-20T14:46:57.751Z,9.15
2022-12-20T14:49:30.431Z,9.14
2022-12-20T14:52:18.184Z,9.13
2022-12-20T14:55:11.672Z,9.12
2022-12-20T14:57:45.817Z,9.10
2022-12-20T15:00:16.149Z,9.10
2022-12-20T15:03:03.253Z,9.08
2022-12-20T15:05:34.135Z,9.08
2022-12-20T15:08:10.334Z,9.06
2022-12-20T15:10:38.068Z,9.05
2022-12-20T15:13:09.530Z,9.06
2022-12-20T15:15:37.312Z,9.05
2022-12-20T15:18:13.586Z,9.05
2022-12-20T15:20:43.324Z,9.05
2022-12-20T15:23:15.908Z,9.04
2022-12-20T15:25:45.328Z,9.04
2022-12-20T15:28:22.052Z,9.05
2022-12-20T15:30:51.524Z,9.05
2022-12-20T15:33:26.256Z,9.04
2022-12-20T15:35:53.874Z,9.03
2022-12-20T15:38:40.573Z,9.02
2022-12-20T15:41:25.082Z,9.01
2022-12-20T15:43:58.087Z,8.98
2022-12-20T15:46:26.881Z,8.98
2022-12-20T15:48:55.203Z,8.95
2022-12-20T15:51:28.706Z,8.97
2022-12-20T15:53:56.573Z,8.98
2022-12-20T15:56:26.645Z,9.00
2022-12-20T15:58:54.429Z,9.02
2022-12-20T16:01:26.154Z,9.02
2022-12-20T16:03:53.609Z,9.02
2022-12-20T16:06:21.367Z,9.02
2022-12-20T16:08:49.259Z,9.01
2022-12-20T16:11:27.811Z,9.02
2022-12-20T16:13:56.690Z,9.03
2022-12-20T16:16:27.308Z,9.02
2022-12-20T16:18:54.688Z,9.01
2022-12-20T16:21:24.363Z,9.01
2022-12-20T16:23:52.454Z,9.00
2022-12-20T16:26:23.476Z,8.95
2022-12-20T16:28:53.518Z,8.97
2022-12-20T16:31:43.475Z,8.95
2022-12-20T16:34:16.086Z,8.94
2022-12-20T16:36:44.322Z,8.93
2022-12-20T16:39:14.529Z,8.91
2022-12-20T16:41:43.710Z,8.88
2022-12-20T16:44:16.039Z,8.85
2022-12-20T16:46:43.912Z,8.85
2022-12-20T16:49:19.699Z,8.81
2022-12-20T16:51:49.049Z,8.81
2022-12-20T16:54:20.897Z,8.81
2022-12-20T16:56:57.517Z,8.79
2022-12-20T16:59:25.649Z,8.78
2022-12-20T17:01:56.618Z,8.77
2022-12-20T17:04:25.040Z,8.75
2022-12-20T17:06:52.356Z,8.74
2022-12-20T17:09:20.573Z,8.72
2022-12-20T17:11:50.214Z,8.71
2022-12-20T17:14:20.006Z,8.70
2022-12-20T17:16:47.731Z,8.68
2022-12-20T17:19:15.031Z,8.68
2022-12-20T17:24:30.591Z,8.67
2022-12-20T17:26:58.138Z,8.66
2022-12-20T17:29:25.604Z,8.66
2022-12-20T17:31:52.916Z,8.65
2022-12-20T17:34:26.228Z,8.65
2022-12-20T17:36:55.668Z,8.64
2022-12-20T17:39:24.222Z,8.64
2022-12-20T17:41:53.080Z,8.62
2022-12-20T17:44:23.853Z,8.62
2022-12-20T17:46:51.374Z,8.62
2022-12-20T17:49:18.975Z,8.61
2022-12-20T17:51:46.967Z,8.59
2022-12-20T17:54:18.815Z,8.60
2022-12-20T17:56:46.566Z,8.59
2022-12-20T17:59:14.743Z,8.59
2022-12-20T18:01:43.292Z,8.58
2022-12-20T18:04:14.488Z,8.59
2022-12-20T18:06:44.891Z,8.58
2022-12-20T18:09:20.113Z,8.56
2022-12-20T18:11:47.553Z,8.57
2022-12-20T18:14:15.817Z,8.56
2022-12-20T18:16:43.755Z,8.56
2022-12-20T18:19:17.228Z,8.56
2022-12-20T18:21:45.169Z,8.56
2022-12-20T18:24:14.711Z,8.56
2022-12-20T18:26:44.913Z,8.56
2022-12-20T18:29:12.361Z,8.56
2022-12-20T18:31:39.968Z,8.56
2022-12-20T18:34:07.439Z,8.57
2022-12-20T18:36:36.918Z,8.57
2022-12-20T18:39:06.642Z,8.57
2022-12-20T18:41:34.933Z,8.57
2022-12-20T18:44:05.874Z,8.56
2022-12-20T18:46:33.878Z,8.55
2022-12-20T18:49:01.808Z,8.54
2022-12-20T18:51:31.753Z,8.53
2022-12-20T18:54:00.097Z,8.52
2022-12-20T18:56:30.902Z,8.52
2022-12-20T18:59:04.645Z,8.52
2022-12-20T19:01:38.482Z,8.51
2022-12-20T19:04:07.714Z,8.48
2022-12-20T19:06:37.026Z,8.48
2022-12-20T19:09:09.072Z,8.47
2022-12-20T19:11:36.648Z,8.46
2022-12-20T19:14:04.401Z,8.44
2022-12-20T19:16:32.797Z,8.42
2022-12-20T19:19:01.917Z,8.42
2022-12-20T19:21:31.751Z,8.41
2022-12-20T19:24:02.329Z,8.40
2022-12-20T19:26:29.991Z,8.38
2022-12-20T19:28:57.796Z,8.39
2022-12-20T19:31:27.663Z,8.38
2022-12-20T19:33:58.099Z,8.38
2022-12-20T19:36:30.858Z,8.39
2022-12-20T19:39:00.595Z,8.39
2022-12-20T19:41:30.723Z,8.39
2022-12-20T19:43:58.555Z,8.39
2022-12-20T19:46:29.345Z,8.37
2022-12-20T19:48:59.131Z,8.37
2022-12-20T19:51:28.350Z,8.36
2022-12-20T19:53:57.981Z,8.36
2022-12-20T19:56:28.146Z,8.36
2022-12-20T19:58:56.331Z,8.35
2022-12-20T20:01:26.970Z,8.34
2022-12-20T20:03:57.549Z,8.34
2022-12-20T20:06:25.840Z,8.31
2022-12-20T20:08:53.553Z,8.31
2022-12-20T20:11:21.234Z,8.30
2022-12-20T20:13:48.762Z,8.29
2022-12-20T20:16:21.784Z,8.28
2022-12-20T20:18:50.221Z,8.27
2022-12-20T20:21:21.617Z,8.25
2022-12-20T20:23:54.152Z,8.23
2022-12-20T20:26:24.697Z,8.23
2022-12-20T20:28:52.856Z,8.22
2022-12-20T20:31:20.794Z,8.19
2022-12-20T20:33:48.673Z,8.19
2022-12-20T20:36:18.884Z,8.17
2022-12-20T20:38:46.426Z,8.15
2022-12-20T20:41:14.463Z,8.13
2022-12-20T20:43:42.896Z,8.12
2022-12-20T20:46:13.671Z,8.11
2022-12-20T20:48:41.471Z,8.08
2022-12-20T20:51:09.754Z,8.05
2022-12-20T20:53:37.642Z,8.03
2022-12-20T20:56:06.330Z,8.03
2022-12-20T20:58:34.650Z,7.99
2022-12-20T21:01:04.927Z,7.97
2022-12-20T21:03:32.833Z,7.95
2022-12-20T21:08:49.131Z,7.90
2022-12-20T21:11:16.738Z,7.89
2022-12-20T21:13:44.107Z,7.87
2022-12-20T21:16:14.963Z,7.85
2022-12-20T21:18:42.348Z,7.79
2022-12-20T21:21:11.566Z,7.76
2022-12-20T21:23:43.244Z,7.73
2022-12-20T21:26:12.857Z,7.70
2022-12-20T21:28:43.905Z,7.67
2022-12-20T21:31:19.536Z,7.64
2022-12-20T21:33:47.192Z,7.58
2022-12-20T21:36:16.828Z,7.56
2022-12-20T21:38:51.457Z,7.52
2022-12-20T21:41:23.259Z,7.48
2022-12-20T21:43:52.074Z,7.45
2022-12-20T21:46:19.459Z,7.41
2022-12-20T21:48:47.191Z,7.38
2022-12-20T21:51:18.148Z,7.36
2022-12-20T21:53:48.464Z,7.34
2022-12-20T21:56:16.871Z,7.32
2022-12-20T21:58:44.935Z,7.29
2022-12-20T22:01:16.698Z,7.27
2022-12-20T22:03:44.790Z,7.25
2022-12-20T22:06:12.593Z,7.25
2022-12-20T22:08:40.284Z,7.23
2022-12-20T22:11:10.724Z,7.21
2022-12-20T22:13:41.609Z,7.18
2022-12-20T22:16:10.716Z,7.17
2022-12-20T22:18:38.358Z,7.16
2022-12-20T22:21:10.752Z,7.15
2022-12-20T22:23:39.086Z,7.14
2022-12-20T22:26:09.608Z,7.13
2022-12-20T22:28:38.160Z,7.10
2022-12-20T22:31:10.502Z,7.07
2022-12-20T22:33:38.664Z,7.05
2022-12-20T22:36:07.822Z,7.05
2022-12-20T22:38:35.672Z,7.03
2022-12-20T22:41:30.473Z,7.00
2022-12-20T22:43:59.540Z,6.98
2022-12-20T22:46:29.481Z,6.96
2022-12-20T22:48:58.506Z,6.94
2022-12-20T22:51:27.381Z,6.91
2022-12-20T22:54:00.205Z,6.88
2022-12-20T22:56:27.518Z,6.86
2022-12-20T22:58:55.059Z,6.84
2022-12-20T23:01:25.057Z,6.83
2022-12-20T23:03:52.693Z,6.80
2022-12-20T23:06:21.056Z,6.77
2022-12-20T23:08:48.821Z,6.75
2022-12-20T23:11:43.904Z,6.71
2022-12-20T23:14:35.206Z,6.71
2022-12-20T23:17:04.537Z,6.70
2022-12-20T23:19:52.226Z,6.68
2022-12-20T23:22:39.387Z,6.68
2022-12-20T23:25:10.282Z,6.67
2022-12-20T23:27:39.107Z,6.66
2022-12-20T23:30:09.141Z,6.64
2022-12-20T23:32:36.558Z,6.63
2022-12-20T23:35:10.005Z,6.63
2022-12-20T23:37:39.950Z,6.62
2022-12-20T23:40:08.475Z,6.60
2022-12-20T23:42:35.767Z,6.60
2022-12-20T23:45:03.514Z,6.58
2022-12-20T23:47:31.950Z,6.58
2022-12-20T23:49:59.241Z,6.56
2022-12-20T23:52:26.730Z,6.56
2022-12-20T23:54:54.082Z,6.55
2022-12-20T23:57:21.256Z,6.56
2022-12-20T23:59:48.597Z,6.55
